Time;durP1;ratioP1;P1;durP2;ratioP2;P2;SDS_P1;SDS_P2;PMS_P1;PMS_P2;Temp;Humidity;BMP_temperature;BMP_pressure;BME280_temperature;BME280_humidity;BME280_pressure;Samples;Min_cycle;Max_cycle;Signal;HPM_P1;HPM_P2
2022/11/16 00:01:20;;;;;;;11.13;7.13;;;9.30;87.20;;;;;;5050224;28;20197;-67
2022/11/16 00:03:48;;;;;;;7.50;6.57;;;9.20;87.10;;;;;;5050186;28;20237;-66
2022/11/16 00:06:16;;;;;;;10.57;7.10;;;9.20;86.50;;;;;;5050517;28;22071;-66
2022/11/16 00:09:20;;;;;;;10.30;6.95;;;9.10;86.30;;;;;;5050355;28;20232;-66
2022/11/16 00:11:38;;;;;;;9.07;7.57;;;8.90;86.00;;;;;;5050324;28;20190;-66
2022/11/16 00:14:06;;;;;;;8.98;8.05;;;8.80;87.70;;;;;;5051207;28;20202;-67
2022/11/16 00:16:35;;;;;;;7.95;6.10;;;8.80;87.90;;;;;;5051998;28;20198;-66
2022/11/16 00:19:04;;;;;;;11.02;6.78;;;8.80;88.10;;;;;;5051184;28;20179;-66
2022/11/16 00:21:32;;;;;;;8.20;6.13;;;8.80;88.20;;;;;;5052174;28;20685;-67
2022/11/16 00:24:00;;;;;;;10.63;8.63;;;8.70;88.60;;;;;;5051642;28;20568;-66
2022/11/16 00:26:27;;;;;;;9.50;6.32;;;8.70;89.40;;;;;;5051991;28;20228;-66
2022/11/16 00:28:55;;;;;;;7.32;5.55;;;8.70;90.10;;;;;;5051832;28;20195;-66
2022/11/16 00:31:24;;;;;;;8.98;6.65;;;8.60;90.30;;;;;;5052296;28;20196;-66
2022/11/16 00:33:53;;;;;;;9.00;6.70;;;8.60;90.50;;;;;;5051595;28;20244;-66
2022/11/16 00:36:20;;;;;;;12.30;8.25;;;8.60;90.70;;;;;;5051856;28;20190;-66
2022/11/16 00:38:47;;;;;;;10.38;7.57;;;8.60;91.00;;;;;;5051284;28;20195;-66
2022/11/16 00:41:15;;;;;;;11.82;8.30;;;8.70;91.10;;;;;;5051838;28;20281;-66
2022/11/16 00:43:42;;;;;;;9.45;6.53;;;8.70;91.10;;;;;;5050996;28;20676;-66
2022/11/16 00:46:09;;;;;;;8.85;6.43;;;8.70;91.00;;;;;;5051955;28;20187;-66
2022/11/16 00:48:36;;;;;;;9.35;6.55;;;8.80;91.00;;;;;;5051632;28;20551;-66
2022/11/16 00:51:06;;;;;;;8.98;6.28;;;8.80;91.00;;;;;;5055207;28;20190;-66
2022/11/16 00:53:35;;;;;;;9.40;7.30;;;8.80;91.00;;;;;;5054950;28;20190;-66
2022/11/16 00:56:02;;;;;;;7.45;6.28;;;8.80;91.10;;;;;;5055586;28;20195;-66
2022/11/16 00:58:29;;;;;;;9.15;7.03;;;8.90;91.10;;;;;;5054946;28;20194;-66
2022/11/16 01:00:56;;;;;;;10.65;7.43;;;8.90;90.80;;;;;;5055111;28;20204;-67
2022/11/16 01:03:24;;;;;;;13.25;6.50;;;9.00;90.80;;;;;;5054864;28;20214;-66
2022/11/16 01:05:51;;;;;;;9.45;6.50;;;9.00;90.70;;;;;;5054939;28;20222;-66
2022/11/16 01:08:20;;;;;;;9.20;7.30;;;9.00;90.70;;;;;;5054538;28;20190;-66
2022/11/16 01:10:47;;;;;;;12.10;6.40;;;9.00;90.50;;;;;;5055026;28;20244;-66
2022/11/16 01:13:13;;;;;;;12.43;6.88;;;9.10;90.40;;;;;;5054691;28;20960;-66
2022/11/16 01:15:50;;;;;;;9.85;6.47;;;9.10;90.30;;;;;;5054980;28;20293;-66
2022/11/16 01:18:17;;;;;;;8.30;6.72;;;9.00;90.20;;;;;;5054450;28;20664;-66
2022/11/16 01:20:44;;;;;;;9.35;7.15;;;9.00;90.20;;;;;;5054691;28;20205;-66
2022/11/16 01:23:12;;;;;;;10.65;7.45;;;8.90;90.20;;;;;;5054357;28;20269;-66
2022/11/16 01:25:40;;;;;;;8.10;6.75;;;8.90;90.20;;;;;;5054657;28;20226;-66
2022/11/16 01:28:08;;;;;;;9.18;7.18;;;8.80;90.40;;;;;;5054013;28;20196;-66
2022/11/16 01:30:35;;;;;;;6.93;6.00;;;8.70;90.60;;;;;;5054776;28;20194;-66
2022/11/16 01:33:07;;;;;;;7.55;6.43;;;8.70;91.10;;;;;;5054155;28;20195;-66
2022/11/16 01:35:34;;;;;;;7.07;5.28;;;8.60;91.10;;;;;;5054574;28;20244;-66
2022/11/16 01:38:03;;;;;;;7.97;6.50;;;8.60;91.20;;;;;;5054221;28;20202;-66
2022/11/16 01:40:30;;;;;;;6.82;6.03;;;8.70;91.30;;;;;;5033972;28;20642;-66
2022/11/16 01:43:00;;;;;;;7.80;6.75;;;8.60;91.50;;;;;;5034747;28;20669;-66
2022/11/16 01:45:37;;;;;;;7.18;5.90;;;8.60;91.60;;;;;;5053550;28;20218;-66
2022/11/16 01:48:05;;;;;;;10.88;5.45;;;8.60;91.60;;;;;;5054253;28;20285;-66
2022/11/16 01:50:32;;;;;;;6.25;5.65;;;8.60;91.80;;;;;;5053855;28;20190;-66
2022/11/16 01:53:03;;;;;;;11.00;6.00;;;8.60;91.90;;;;;;5054299;28;20640;-66
2022/11/16 01:55:33;;;;;;;7.20;5.75;;;8.60;92.00;;;;;;5053811;28;20182;-66
2022/11/16 01:58:03;;;;;;;8.15;4.60;;;8.60;91.90;;;;;;5054224;28;20621;-66
2022/11/16 02:00:30;;;;;;;7.78;5.95;;;8.60;92.00;;;;;;5052383;28;20194;-66
2022/11/16 02:02:57;;;;;;;8.90;6.97;;;8.70;92.00;;;;;;5054026;28;20222;-66
2022/11/16 02:05:31;;;;;;;8.13;6.38;;;8.70;92.30;;;;;;5053426;28;20210;-66
2022/11/16 02:11:23;;;;;;;7.38;5.88;;;8.70;92.10;;;;;;5034191;28;20205;-66
2022/11/16 02:14:02;;;;;;;8.63;5.20;;;8.80;92.10;;;;;;5036664;28;20564;-67
2022/11/16 02:16:39;;;;;;;8.13;5.72;;;8.70;92.30;;;;;;5053620;28;20531;-67
2022/11/16 02:19:36;;;;;;;9.60;6.10;;;8.70;92.20;;;;;;5053571;28;20182;-66
2022/11/16 02:22:10;;;;;;;8.85;5.45;;;8.80;92.30;;;;;;5053654;28;20523;-66
2022/11/16 02:24:44;;;;;;;7.05;5.68;;;8.80;92.20;;;;;;5052965;28;20218;-66
2022/11/16 02:27:39;;;;;;;7.88;5.90;;;8.80;92.10;;;;;;5053512;28;20244;-66
2022/11/16 02:30:08;;;;;;;6.20;5.20;;;8.80;92.40;;;;;;5052946;28;20208;-68
2022/11/16 02:32:39;;;;;;;8.43;5.95;;;8.80;92.30;;;;;;5033521;28;20194;-67
2022/11/16 02:35:12;;;;;;;8.82;5.65;;;8.80;92.60;;;;;;5047503;28;20248;-66
2022/11/16 02:37:44;;;;;;;7.90;4.93;;;8.70;92.70;;;;;;5053357;28;20187;-67
2022/11/16 02:40:14;;;;;;;7.25;5.28;;;8.70;92.80;;;;;;5052889;28;20645;-67
2022/11/16 02:42:48;;;;;;;6.35;5.55;;;8.70;92.90;;;;;;5053285;28;20230;-67
2022/11/16 02:45:21;;;;;;;7.20;5.47;;;8.70;93.10;;;;;;5052510;28;20684;-66
2022/11/16 02:47:51;;;;;;;6.85;5.53;;;8.60;93.30;;;;;;5053308;28;20190;-66
2022/11/16 02:50:22;;;;;;;6.45;5.35;;;8.70;93.40;;;;;;5052222;28;20733;-67
2022/11/16 02:52:49;;;;;;;7.25;5.22;;;8.70;93.30;;;;;;5033032;28;20191;-66
2022/11/16 02:55:16;;;;;;;7.13;5.78;;;8.80;93.30;;;;;;5045953;28;20187;-66
2022/11/16 02:57:50;;;;;;;7.18;5.90;;;8.90;93.20;;;;;;5052508;28;20209;-67
2022/11/16 03:00:33;;;;;;;7.95;6.85;;;8.90;92.90;;;;;;5052985;28;20197;-67
2022/11/16 03:03:11;;;;;;;7.88;5.63;;;9.00;92.80;;;;;;5052838;28;20279;-67
2022/11/16 03:05:43;;;;;;;10.48;6.00;;;9.00;92.60;;;;;;5052318;28;20224;-67
2022/11/16 03:08:18;;;;;;;7.60;5.78;;;8.90;92.70;;;;;;5053105;28;20268;-67
2022/11/16 03:13:41;;;;;;;8.98;5.43;;;9.00;93.20;;;;;;5033037;28;20248;-66
2022/11/16 03:16:16;;;;;;;8.10;5.50;;;9.00;93.20;;;;;;5043372;28;20194;-66
2022/11/16 03:18:46;;;;;;;7.00;5.65;;;9.00;93.00;;;;;;5052750;28;20186;-66
2022/11/16 03:21:18;;;;;;;7.68;5.05;;;9.10;93.00;;;;;;5051858;28;20275;-67
2022/11/16 03:23:48;;;;;;;7.90;5.65;;;9.00;93.40;;;;;;5052177;28;20178;-67
2022/11/16 03:26:20;;;;;;;8.20;5.15;;;9.00;93.60;;;;;;5052497;28;20272;-66
2022/11/16 03:28:55;;;;;;;7.03;4.90;;;9.00;93.50;;;;;;5052561;28;20183;-67
2022/11/16 03:31:29;;;;;;;5.80;4.45;;;9.10;93.50;;;;;;5051976;28;20272;-67
2022/11/16 03:34:03;;;;;;;7.40;5.15;;;9.20;93.50;;;;;;5052243;28;20264;-67
2022/11/16 03:36:33;;;;;;;6.60;4.75;;;9.20;93.50;;;;;;5052486;28;20190;-67
2022/11/16 03:39:04;;;;;;;7.90;4.70;;;9.20;93.40;;;;;;5051891;28;20186;-67
2022/11/16 03:41:33;;;;;;;6.68;4.57;;;9.20;93.30;;;;;;5052429;28;20277;-66
2022/11/16 03:44:01;;;;;;;7.45;5.28;;;9.20;93.70;;;;;;5051902;28;20269;-66
2022/11/16 03:46:30;;;;;;;6.88;5.50;;;9.20;93.90;;;;;;5052160;28;20229;-66
2022/11/16 03:48:58;;;;;;;6.55;5.50;;;9.30;93.90;;;;;;5051655;28;20237;-66
2022/11/16 03:51:26;;;;;;;5.75;4.65;;;9.30;93.50;;;;;;5052017;28;20248;-67
2022/11/16 03:53:53;;;;;;;6.70;5.40;;;9.20;93.70;;;;;;5051322;28;20198;-68
2022/11/16 03:56:20;;;;;;;8.50;5.82;;;9.20;93.80;;;;;;5052252;28;20585;-67
2022/11/16 03:58:48;;;;;;;7.25;4.90;;;9.20;94.30;;;;;;5052330;28;20190;-66
2022/11/16 04:01:15;;;;;;;8.93;6.63;;;9.20;94.30;;;;;;5051857;28;20265;-67
2022/11/16 04:03:44;;;;;;;8.48;6.43;;;9.20;94.40;;;;;;5052158;28;20257;-67
2022/11/16 04:25:37;;;;;;;6.43;5.45;;;9.40;94.80;;;;;;5055704;28;20574;-66
2022/11/16 04:28:30;;;;;;;;;;;;;;;;;;;;;
2022/11/16 04:39:26;;;;;;;9.38;5.30;;;9.40;95.80;;;;;;5013474;28;20191;-68
2022/11/16 04:47:23;;;;;;;10.82;7.57;;;9.40;96.20;;;;;;5055890;28;20193;-66
2022/11/16 04:49:50;;;;;;;15.48;10.40;;;9.40;96.30;;;;;;5055265;28;20194;-67
2022/11/16 04:52:19;;;;;;;12.63;9.05;;;9.40;96.40;;;;;;5055478;28;20551;-67
2022/11/16 04:54:47;;;;;;;9.00;6.57;;;9.40;96.50;;;;;;5055479;28;20193;-67
2022/11/16 04:57:14;;;;;;;8.18;6.10;;;9.40;96.30;;;;;;5054617;28;20191;-67
2022/11/16 04:59:41;;;;;;;17.15;6.28;;;9.50;96.40;;;;;;5055290;28;20194;-66
2022/11/16 05:02:14;;;;;;;7.30;5.60;;;9.60;96.40;;;;;;5054828;28;20182;-67
2022/11/16 05:04:43;;;;;;;9.52;6.28;;;9.50;96.40;;;;;;5054885;28;20308;-67
2022/11/16 05:07:13;;;;;;;7.35;5.57;;;9.60;96.60;;;;;;5054828;28;20182;-66
2022/11/16 05:09:43;;;;;;;8.73;5.45;;;9.60;96.90;;;;;;5054723;28;20187;-67
2022/11/16 05:12:13;;;;;;;7.53;5.78;;;9.60;97.00;;;;;;5054938;28;20229;-67
2022/11/16 05:14:40;;;;;;;6.75;4.35;;;9.60;97.10;;;;;;5055225;28;20249;-66
2022/11/16 05:17:08;;;;;;;9.52;5.55;;;9.60;97.40;;;;;;5054752;28;20186;-66
2022/11/16 05:22:20;;;;;;;5.90;4.15;;;9.60;97.90;;;;;;5054777;28;20190;-67
2022/11/16 05:24:49;;;;;;;6.85;5.18;;;9.60;98.20;;;;;;5054694;28;20702;-67
2022/11/16 05:27:20;;;;;;;7.32;5.60;;;9.70;98.40;;;;;;5053977;28;20681;-67
2022/11/16 05:29:48;;;;;;;7.82;5.90;;;9.70;98.50;;;;;;5054175;28;20232;-67
2022/11/16 05:32:16;;;;;;;5.57;4.97;;;9.80;98.70;;;;;;5054717;28;20226;-67
2022/11/16 05:34:43;;;;;;;8.27;5.60;;;9.80;98.80;;;;;;5054175;28;20911;-67
2022/11/16 05:37:13;;;;;;;6.30;4.25;;;9.80;99.00;;;;;;5054189;28;20554;-67
2022/11/16 05:39:41;;;;;;;6.05;4.22;;;9.90;99.30;;;;;;5054252;28;20556;-67
2022/11/16 05:42:10;;;;;;;6.45;4.45;;;9.90;99.70;;;;;;5054840;28;20197;-67
2022/11/16 05:44:37;;;;;;;7.80;5.07;;;10.00;99.30;;;;;;5053907;28;20281;-68
2022/11/16 05:47:04;;;;;;;7.05;5.25;;;10.10;99.20;;;;;;5035466;28;20219;-67
2022/11/16 05:49:32;;;;;;;6.47;4.60;;;10.10;99.60;;;;;;5054491;28;20241;-67
2022/11/16 05:51:59;;;;;;;5.97;4.13;;;10.10;99.90;;;;;;5053365;28;20187;-68
2022/11/16 05:54:26;;;;;;;5.57;4.07;;;10.10;99.90;;;;;;5054378;28;20556;-66
2022/11/16 05:56:55;;;;;;;6.07;4.75;;;10.10;99.90;;;;;;5054063;28;20591;-67
2022/11/16 05:59:24;;;;;;;4.80;3.33;;;10.10;99.90;;;;;;5054295;28;20585;-67
2022/11/16 06:01:54;;;;;;;16.20;8.43;;;10.10;99.90;;;;;;5053867;28;20197;-68
2022/11/16 06:04:21;;;;;;;18.45;10.55;;;10.20;99.90;;;;;;5053886;28;20222;-67
2022/11/16 06:06:49;;;;;;;21.90;14.98;;;10.20;99.90;;;;;;5053616;28;20867;-66
2022/11/16 06:09:16;;;;;;;50.78;30.05;;;10.20;99.90;;;;;;5053231;28;20645;-67
2022/11/16 06:11:44;;;;;;;17.20;10.80;;;10.20;99.90;;;;;;5053995;28;20201;-67
2022/11/16 06:14:11;;;;;;;12.93;7.97;;;10.20;99.90;;;;;;5053046;28;20240;-66
2022/11/16 06:16:40;;;;;;;24.58;15.02;;;10.20;99.90;;;;;;5054010;28;20197;-68
2022/11/16 06:19:07;;;;;;;8.73;5.97;;;10.30;99.90;;;;;;5053245;28;20210;-68
2022/11/16 06:21:34;;;;;;;5.25;3.70;;;10.30;99.90;;;;;;5054048;28;20198;-67
2022/11/16 06:24:07;;;;;;;4.68;3.58;;;10.30;99.90;;;;;;5053220;28;21414;-67
2022/11/16 06:26:35;;;;;;;8.25;5.90;;;10.20;99.90;;;;;;5053631;28;20696;-67
2022/11/16 06:29:02;;;;;;;8.45;5.97;;;10.30;99.90;;;;;;5053364;28;20294;-67
2022/11/16 06:31:29;;;;;;;8.25;6.03;;;10.30;99.90;;;;;;5053990;28;20190;-67
2022/11/16 06:33:58;;;;;;;6.85;5.43;;;10.30;99.90;;;;;;5053083;28;20198;-67
2022/11/16 06:36:26;;;;;;;9.40;6.32;;;10.30;99.90;;;;;;5053621;28;20197;-67
2022/11/16 06:38:53;;;;;;;31.27;24.85;;;10.20;99.90;;;;;;5052895;28;20230;-68
2022/11/16 06:41:20;;;;;;;27.52;19.95;;;10.30;99.90;;;;;;5053712;28;20190;-67
2022/11/16 06:43:47;;;;;;;23.23;18.92;;;10.30;99.90;;;;;;5049503;28;20671;-67
2022/11/16 06:46:15;;;;;;;8.30;5.50;;;10.40;99.90;;;;;;5049733;28;20221;-67
2022/11/16 06:48:42;;;;;;;9.35;6.80;;;10.30;99.90;;;;;;5051696;28;20195;-67
2022/11/16 06:51:11;;;;;;;8.82;6.15;;;10.20;99.90;;;;;;5051657;28;20656;-67
2022/11/16 06:53:38;;;;;;;8.65;5.57;;;10.20;99.90;;;;;;5051896;28;20209;-67
2022/11/16 06:56:07;;;;;;;9.52;6.00;;;10.20;99.90;;;;;;5051274;28;20194;-67
2022/11/16 06:58:34;;;;;;;23.08;19.77;;;10.20;99.90;;;;;;5052344;28;20592;-67
2022/11/16 07:01:06;;;;;;;18.25;13.73;;;10.20;99.90;;;;;;5051679;28;20199;-67
2022/11/16 07:03:34;;;;;;;18.45;14.60;;;10.20;99.90;;;;;;5051532;28;20238;-67
2022/11/16 07:06:11;;;;;;;29.70;24.63;;;10.30;99.90;;;;;;5050491;28;20688;-67
2022/11/16 07:08:40;;;;;;;35.30;22.60;;;10.30;99.90;;;;;;5051731;28;20213;-68
2022/11/16 07:11:09;;;;;;;11.70;9.38;;;10.20;99.90;;;;;;5048080;28;20191;-67
2022/11/16 07:13:37;;;;;;;6.00;4.47;;;10.20;99.90;;;;;;5050104;28;20217;-67
2022/11/16 07:16:05;;;;;;;5.15;3.42;;;10.10;99.90;;;;;;5051518;28;20248;-67
2022/11/16 07:18:33;;;;;;;5.38;3.70;;;10.10;99.90;;;;;;5050239;28;20249;-67
2022/11/16 07:21:05;;;;;;;3.83;3.05;;;10.10;99.90;;;;;;5051306;28;20194;-67
2022/11/16 07:23:32;;;;;;;3.80;2.83;;;10.10;99.90;;;;;;5051442;28;20210;-67
2022/11/16 07:26:01;;;;;;;5.70;2.78;;;10.20;99.90;;;;;;5049926;28;20222;-67
2022/11/16 07:28:29;;;;;;;3.92;2.60;;;10.10;99.90;;;;;;5051072;28;20259;-68
2022/11/16 07:30:56;;;;;;;4.93;3.35;;;10.10;99.90;;;;;;5051253;28;20194;-67
2022/11/16 07:33:23;;;;;;;8.10;5.53;;;10.10;99.90;;;;;;5048978;28;20540;-67
2022/11/16 07:35:50;;;;;;;5.88;3.53;;;10.10;99.90;;;;;;5050833;28;20201;-67
2022/11/16 07:38:17;;;;;;;8.07;3.95;;;10.10;99.90;;;;;;5051640;28;20226;-67
2022/11/16 07:40:45;;;;;;;4.55;3.50;;;10.10;99.90;;;;;;5051209;28;20194;-67
2022/11/16 07:43:13;;;;;;;4.95;3.92;;;10.10;99.90;;;;;;5051472;28;20264;-67
2022/11/16 07:45:40;;;;;;;39.88;29.00;;;10.10;99.90;;;;;;5050382;28;20605;-67
2022/11/16 07:48:07;;;;;;;54.85;43.33;;;10.20;99.90;;;;;;5051106;28;20688;-67
2022/11/16 07:50:34;;;;;;;32.08;26.05;;;10.30;99.90;;;;;;5050876;28;20325;-68
2022/11/16 07:53:02;;;;;;;15.02;12.45;;;10.30;99.90;;;;;;5051355;28;20200;-68
2022/11/16 07:55:31;;;;;;;7.13;4.40;;;10.40;99.90;;;;;;5051498;28;20236;-67
2022/11/16 07:57:59;;;;;;;4.47;3.17;;;10.50;99.90;;;;;;5050002;28;20202;-67
2022/11/16 08:00:30;;;;;;;45.03;29.20;;;10.50;99.90;;;;;;5055547;28;20281;-67
2022/11/16 08:02:58;;;;;;;165.95;94.70;;;10.50;99.90;;;;;;5055579;28;20253;-66
2022/11/16 08:05:25;;;;;;;70.90;51.72;;;10.50;99.90;;;;;;5055114;28;20649;-67
2022/11/16 08:07:52;;;;;;;48.65;32.47;;;10.50;99.90;;;;;;5055549;28;20222;-67
2022/11/16 08:10:19;;;;;;;32.55;25.33;;;10.60;99.90;;;;;;5056183;28;20256;-67
2022/11/16 08:12:46;;;;;;;25.20;19.88;;;10.50;99.90;;;;;;5056618;28;20228;-67
2022/11/16 08:15:14;;;;;;;14.05;11.25;;;10.60;99.90;;;;;;5055899;28;20747;-67
2022/11/16 08:17:42;;;;;;;28.80;22.98;;;10.60;99.90;;;;;;5056643;28;20195;-68
2022/11/16 08:20:09;;;;;;;17.58;12.50;;;10.50;99.90;;;;;;5052733;28;20187;-67
2022/11/16 08:22:36;;;;;;;6.82;5.75;;;10.60;99.90;;;;;;5054763;28;20187;-67
2022/11/16 08:25:05;;;;;;;5.65;4.18;;;10.60;99.90;;;;;;5055877;28;20537;-67
2022/11/16 08:27:32;;;;;;;5.25;3.88;;;10.60;99.90;;;;;;5055700;28;20215;-67
2022/11/16 08:30:01;;;;;;;5.32;3.90;;;10.60;99.90;;;;;;5055576;28;20220;-67
2022/11/16 08:32:28;;;;;;;6.65;4.20;;;10.60;99.90;;;;;;5052852;28;20201;-68
2022/11/16 08:34:57;;;;;;;5.50;4.55;;;10.70;99.90;;;;;;5055827;28;20194;-67
2022/11/16 08:37:24;;;;;;;4.90;3.67;;;10.60;99.90;;;;;;5055418;28;20225;-67
2022/11/16 08:39:52;;;;;;;23.27;17.30;;;10.60;99.90;;;;;;5055778;28;20206;-67
2022/11/16 08:42:19;;;;;;;29.98;20.77;;;10.70;99.90;;;;;;5054827;28;20214;-67
2022/11/16 08:44:45;;;;;;;67.38;44.15;;;10.80;99.90;;;;;;5055275;28;20190;-67
2022/11/16 08:47:13;;;;;;;46.25;29.27;;;10.70;99.90;;;;;;5055938;28;20308;-67
2022/11/16 08:49:39;;;;;;;48.85;29.10;;;10.80;99.90;;;;;;5056087;28;20191;-67
2022/11/16 08:52:08;;;;;;;56.15;28.48;;;10.90;99.90;;;;;;5055856;28;20595;-68
2022/11/16 08:54:35;;;;;;;112.25;46.42;;;10.90;99.90;;;;;;5055864;28;20234;-67
2022/11/16 08:57:02;;;;;;;81.50;39.85;;;11.00;99.90;;;;;;5055736;28;20294;-68
2022/11/16 08:59:29;;;;;;;20.20;14.77;;;11.00;99.90;;;;;;5055817;28;20241;-68
2022/11/16 09:01:55;;;;;;;26.05;18.05;;;11.00;99.90;;;;;;5055827;28;20275;-68
2022/11/16 09:04:23;;;;;;;15.93;13.73;;;11.00;99.90;;;;;;5055560;28;20254;-68
2022/11/16 09:06:51;;;;;;;11.50;8.80;;;11.00;99.90;;;;;;5055082;28;20224;-68
2022/11/16 09:09:20;;;;;;;8.75;7.35;;;11.00;99.90;;;;;;5055158;28;20214;-68
2022/11/16 09:11:47;;;;;;;10.30;9.30;;;11.10;99.90;;;;;;5055568;28;20667;-65
2022/11/16 09:14:14;;;;;;;8.23;7.32;;;11.10;99.90;;;;;;5055340;28;20293;-65
2022/11/16 09:16:41;;;;;;;8.48;6.70;;;11.20;99.90;;;;;;5051289;28;20623;-66
2022/11/16 09:19:09;;;;;;;6.30;5.47;;;11.20;99.90;;;;;;5054140;28;20225;-66
2022/11/16 09:21:36;;;;;;;4.13;3.67;;;11.30;99.90;;;;;;5054842;28;20528;-66
2022/11/16 09:24:03;;;;;;;6.03;3.75;;;11.30;99.90;;;;;;5055144;28;20197;-66
2022/11/16 09:26:32;;;;;;;5.38;4.88;;;11.40;99.90;;;;;;5054712;28;20220;-66
2022/11/16 09:29:02;;;;;;;5.13;4.32;;;11.40;99.90;;;;;;5055313;28;20238;-66
2022/11/16 09:31:33;;;;;;;9.07;7.25;;;11.40;99.90;;;;;;5055203;28;20212;-66
2022/11/16 09:34:01;;;;;;;62.83;39.65;;;11.40;99.90;;;;;;5055221;28;20197;-66
2022/11/16 09:36:29;;;;;;;49.38;31.70;;;11.40;99.90;;;;;;5054919;28;20214;-66
2022/11/16 09:38:56;;;;;;;17.00;12.95;;;11.40;99.90;;;;;;5055095;28;20242;-66
2022/11/16 09:41:48;;;;;;;23.20;15.50;;;11.50;99.90;;;;;;5054668;28;20192;-66
2022/11/16 09:44:48;;;;;;;28.33;22.48;;;11.50;99.90;;;;;;5055014;28;20554;-66
2022/11/16 09:47:20;;;;;;;9.50;8.50;;;11.50;99.90;;;;;;5054797;28;20230;-65
2022/11/16 09:49:51;;;;;;;14.38;13.07;;;11.50;99.80;;;;;;5054762;28;20660;-66
2022/11/16 09:52:25;;;;;;;9.68;8.75;;;11.60;99.90;;;;;;5054722;28;20236;-66
2022/11/16 09:54:54;;;;;;;6.32;4.75;;;11.70;99.90;;;;;;5054472;28;20643;-66
2022/11/16 09:57:33;;;;;;;4.68;3.30;;;11.80;99.80;;;;;;5054625;28;20249;-66
2022/11/16 10:00:04;;;;;;;9.13;7.27;;;11.90;99.60;;;;;;5054670;28;20544;-66
2022/11/16 10:02:37;;;;;;;7.72;4.90;;;12.00;99.30;;;;;;5054742;28;20444;-66
2022/11/16 10:05:12;;;;;;;9.27;7.85;;;12.20;99.50;;;;;;5054451;28;20200;-66
2022/11/16 10:07:43;;;;;;;6.03;4.15;;;12.20;99.40;;;;;;5054437;28;20231;-66
2022/11/16 10:10:13;;;;;;;3.53;2.17;;;12.30;99.40;;;;;;5054280;28;20200;-66
2022/11/16 10:12:48;;;;;;;3.55;1.70;;;12.30;99.50;;;;;;5054491;28;20197;-66
2022/11/16 10:15:35;;;;;;;4.10;2.00;;;12.40;99.20;;;;;;5053983;28;20205;-66
2022/11/16 10:18:13;;;;;;;9.40;7.72;;;12.50;98.70;;;;;;5053825;28;20691;-66
2022/11/16 10:20:56;;;;;;;8.80;5.30;;;12.50;98.10;;;;;;5053394;28;20192;-66
2022/11/16 10:23:37;;;;;;;13.73;9.67;;;12.60;97.60;;;;;;5054151;28;20447;-66
2022/11/16 10:26:16;;;;;;;8.97;4.27;;;12.70;97.50;;;;;;5054073;28;20444;-66
2022/11/16 10:29:00;;;;;;;5.03;2.30;;;12.80;97.50;;;;;;5054184;28;20505;-66
2022/11/16 10:31:41;;;;;;;5.00;1.97;;;12.90;97.60;;;;;;5054065;28;20474;-67
2022/11/16 10:34:15;;;;;;;6.77;2.10;;;13.00;97.50;;;;;;5054031;28;20448;-66
2022/11/16 10:36:42;;;;;;;2.07;1.20;;;13.10;97.40;;;;;;5053716;28;20452;-66
2022/11/16 10:39:13;;;;;;;3.03;1.50;;;13.20;97.30;;;;;;5053884;28;20444;-66
2022/11/16 10:41:43;;;;;;;6.90;2.03;;;13.40;96.80;;;;;;5053441;28;20444;-66
2022/11/16 10:44:19;;;;;;;5.80;3.13;;;13.70;96.30;;;;;;5053680;28;20547;-66
2022/11/16 10:46:56;;;;;;;8.73;3.50;;;13.90;95.20;;;;;;5053660;28;20476;-66
2022/11/16 10:49:34;;;;;;;3.00;1.60;;;14.20;94.50;;;;;;5053658;28;20441;-67
2022/11/16 10:52:01;;;;;;;2.93;1.33;;;14.50;93.10;;;;;;5053658;28;20432;-66
2022/11/16 10:54:28;;;;;;;5.43;2.10;;;14.90;92.30;;;;;;5053425;28;20432;-66
2022/11/16 10:57:03;;;;;;;2.10;1.20;;;15.10;90.90;;;;;;5053360;28;20527;-66
2022/11/16 10:59:43;;;;;;;4.30;2.00;;;15.20;90.10;;;;;;5053506;28;20436;-66
2022/11/16 11:02:34;;;;;;;3.97;1.83;;;15.20;88.30;;;;;;5053284;28;20480;-66
2022/11/16 11:05:06;;;;;;;4.03;2.10;;;15.10;87.10;;;;;;5033633;28;20920;-66
2022/11/16 11:07:36;;;;;;;16.37;14.10;;;15.00;86.20;;;;;;5033579;28;20489;-66
2022/11/16 11:10:06;;;;;;;5.30;3.57;;;14.90;84.90;;;;;;5033294;28;20438;-67
2022/11/16 11:12:39;;;;;;;4.90;2.83;;;14.80;84.40;;;;;;5033143;28;20499;-67
2022/11/16 11:15:25;;;;;;;3.07;1.50;;;14.60;82.80;;;;;;5033451;28;21027;-67
2022/11/16 11:18:12;;;;;;;2.30;1.30;;;14.40;82.50;;;;;;5033334;28;20437;-67
2022/11/16 11:20:40;;;;;;;4.30;1.97;;;14.30;83.70;;;;;;5033315;28;20438;-67
2022/11/16 11:23:14;;;;;;;3.67;1.50;;;14.20;84.40;;;;;;5033081;28;20936;-67
2022/11/16 11:25:49;;;;;;;2.80;1.50;;;14.10;84.60;;;;;;5033020;28;20848;-67
2022/11/16 11:28:20;;;;;;;3.90;1.80;;;14.00;83.00;;;;;;5032596;28;20524;-67
2022/11/16 11:31:01;;;;;;;4.93;1.60;;;13.90;83.00;;;;;;5032639;28;20529;-67
2022/11/16 11:33:32;;;;;;;6.20;1.63;;;13.80;83.00;;;;;;5032461;28;20913;-67
2022/11/16 11:36:04;;;;;;;3.37;1.50;;;13.60;82.40;;;;;;5032717;28;20445;-67
2022/11/16 11:38:32;;;;;;;2.20;1.20;;;13.50;83.00;;;;;;5032545;28;20477;-66
2022/11/16 11:41:00;;;;;;;6.43;3.60;;;13.40;83.60;;;;;;5032939;28;20866;-66
2022/11/16 11:43:28;;;;;;;15.03;7.00;;;13.30;83.70;;;;;;5032613;28;20959;-67
2022/11/16 11:46:03;;;;;;;5.33;2.47;;;13.30;83.70;;;;;;5032331;28;20912;-67
2022/11/16 11:48:40;;;;;;;3.60;2.17;;;13.20;83.90;;;;;;5032886;28;20520;-66
2022/11/16 11:51:15;;;;;;;5.80;3.57;;;13.10;84.30;;;;;;5033282;28;20445;-66
2022/11/16 11:53:51;;;;;;;3.30;1.77;;;13.10;85.70;;;;;;5032714;28;20452;-67
2022/11/16 11:56:19;;;;;;;3.10;1.40;;;13.10;86.10;;;;;;5032922;28;20434;-67
2022/11/16 11:58:47;;;;;;;3.93;2.00;;;13.00;85.60;;;;;;5032742;28;20520;-66
2022/11/16 12:01:50;;;;;;;2.17;1.50;;;13.10;86.00;;;;;;5032777;28;20529;-66
2022/11/16 12:04:50;;;;;;;3.27;1.53;;;13.10;86.20;;;;;;5042261;28;20480;-66
2022/11/16 12:07:27;;;;;;;2.50;1.67;;;13.20;86.70;;;;;;5045091;28;20483;-67
2022/11/16 12:10:00;;;;;;;2.70;1.70;;;13.40;87.70;;;;;;5052589;28;20827;-66
2022/11/16 12:12:39;;;;;;;4.90;1.90;;;13.50;88.30;;;;;;5052299;28;20855;-66
2022/11/16 12:15:28;;;;;;;2.60;1.20;;;13.70;87.90;;;;;;5051687;28;20447;-66
2022/11/16 12:18:08;;;;;;;3.90;1.40;;;13.90;86.60;;;;;;5052293;28;20448;-66
2022/11/16 12:20:43;;;;;;;3.27;1.33;;;14.20;86.90;;;;;;5051811;28;20779;-66
2022/11/16 12:23:37;;;;;;;4.47;1.80;;;14.50;85.80;;;;;;5052079;28;20451;-66
2022/11/16 12:26:11;;;;;;;2.50;1.17;;;14.90;84.80;;;;;;5021780;28;20498;-66
2022/11/16 12:28:50;;;;;;;6.43;1.40;;;15.40;82.90;;;;;;5052180;28;21045;-66
2022/11/16 12:31:42;;;;;;;3.70;1.50;;;16.10;81.00;;;;;;5051741;28;20485;-66
2022/11/16 12:34:18;;;;;;;3.07;1.53;;;16.90;78.30;;;;;;5049390;28;20945;-66
2022/11/16 12:36:55;;;;;;;2.27;1.20;;;17.50;68.50;;;;;;5050345;28;20973;-66
2022/11/16 12:39:26;;;;;;;4.13;1.27;;;17.60;67.70;;;;;;5051194;28;20444;-66
2022/11/16 12:42:35;;;;;;;2.30;1.20;;;17.70;66.30;;;;;;5051140;28;20845;-67
2022/11/16 12:45:17;;;;;;;3.00;1.10;;;17.70;64.90;;;;;;5052881;28;20432;-66
2022/11/16 12:48:04;;;;;;;3.87;1.73;;;17.50;63.30;;;;;;5055644;28;20512;-67
2022/11/16 12:50:49;;;;;;;3.63;1.20;;;17.30;62.20;;;;;;5056074;28;20437;-66
2022/11/16 12:53:32;;;;;;;4.07;1.30;;;17.10;62.00;;;;;;5055953;28;20495;-66
2022/11/16 12:56:06;;;;;;;2.43;1.33;;;16.70;60.50;;;;;;5055955;28;20440;-66
2022/11/16 12:58:59;;;;;;;5.60;1.20;;;16.60;61.20;;;;;;5055863;28;20789;-66
2022/11/16 13:01:35;;;;;;;2.40;1.10;;;16.50;62.10;;;;;;5055765;28;20850;-66
2022/11/16 13:04:08;;;;;;;2.37;1.03;;;16.40;62.10;;;;;;5055692;28;20541;-68
2022/11/16 13:06:43;;;;;;;3.90;1.47;;;16.30;62.90;;;;;;5055776;28;20476;-66
2022/11/16 13:09:15;;;;;;;4.37;1.43;;;16.20;62.10;;;;;;5055717;28;20537;-66
2022/11/16 13:11:47;;;;;;;3.07;1.20;;;16.00;62.20;;;;;;5055654;28;20872;-66
2022/11/16 13:14:18;;;;;;;2.57;1.17;;;15.80;62.50;;;;;;5055495;28;20510;-66
2022/11/16 13:16:47;;;;;;;5.13;1.47;;;15.60;63.00;;;;;;5055623;28;20436;-66
2022/11/16 13:19:16;;;;;;;3.10;1.37;;;15.40;63.10;;;;;;5055352;28;20495;-66
2022/11/16 13:21:53;;;;;;;2.83;1.00;;;15.20;63.20;;;;;;5055318;28;20455;-66
2022/11/16 13:24:32;;;;;;;3.93;1.30;;;15.00;63.90;;;;;;5055446;28;20455;-66
2022/11/16 13:27:18;;;;;;;2.80;1.40;;;14.80;64.70;;;;;;5055228;28;20453;-66
2022/11/16 13:29:50;;;;;;;3.70;1.80;;;14.70;65.60;;;;;;5054723;28;20503;-66
2022/11/16 13:32:24;;;;;;;3.00;1.20;;;14.60;66.60;;;;;;5055295;28;20520;-66
2022/11/16 13:34:52;;;;;;;3.60;1.33;;;14.60;67.10;;;;;;5054765;28;20875;-66
2022/11/16 13:37:42;;;;;;;2.00;1.10;;;14.50;66.60;;;;;;5055257;28;20487;-66
2022/11/16 13:40:20;;;;;;;4.03;2.17;;;14.40;68.10;;;;;;5054860;28;20996;-66
2022/11/16 13:43:07;;;;;;;5.77;2.63;;;14.40;67.50;;;;;;5054516;28;20996;-66
2022/11/16 13:45:37;;;;;;;3.97;3.30;;;14.30;66.10;;;;;;5054969;28;20466;-66
2022/11/16 13:48:14;;;;;;;4.13;3.17;;;14.20;66.80;;;;;;5054882;28;20538;-66
2022/11/16 13:50:48;;;;;;;8.53;2.37;;;14.20;68.30;;;;;;5054708;28;20436;-66
2022/11/16 13:53:27;;;;;;;3.77;2.23;;;14.50;69.90;;;;;;5054524;28;20527;-67